Aktualne dane pomiarowe

Uwaga, wersja testowa! Automatyczne pobieranie danych za pomocą narzędzi lub skryptów to umożliwiających jest zabronione.

Dane meteo z obszaru Polski uzyskane na podstawie depesz SYNOP pobieranych co godzinę z NWS. Najedź myszką na symbol przedstawiony w tabeli, aby uzyskać informacje co do jego znaczenia. Prosimy pamiętać, że to testowa wersja strony, która jeszcze nie jest ukończona. Stworzono również jest krótki FAQ dotyczący korzystania z tej podstrony Anomalie temperatury w chwili obecnej odniesione są do okresu referencyjnego 1951-2016. Okres ten będzie później zmieniony na 1981-2010. Kliknij ikonę aby pobrać plik CSV. Kliknij ikonę aby wygenerować mapę synoptyczną dla danego terminu.

Wybierz Datę:    

        

Chojnice (12235)

Dane terminowe dla wybranej stacji. Kliknij datę, aby otrzymać dane z tego terminu dla wszystkich stacji.

TemperaturaZachmurzenieWiatrCiśnienieOpadyPogoda
 Data t td wb tx tn tg rh  Nt Nl Cl Cm Ch ws wd g1 g2 wx mslp ppp ch 24h 12h t ww ww w1 w2  
2019-07-15 23:00:00 12.1 10.1 10.7--- 8830.0wxwxwxwx2wx--21012.9 992.2 -0.4---------
2019-07-15 22:00:00 13.9 10.8 11.8--- 8240.0wxwxwxwx2wx--21013.1 992.5 0.1---------
2019-07-15 21:00:00 14.9 10.8 12.2--- 7640.0wxwxwxwx2wx--21013.1 992.6 0.4---------
2019-07-15 20:00:00 16.1 10.9 12.8--- 7145.0wxwxwxwxwx2wx--21013.0 992.6 0.4---------
2019-07-15 19:00:00 17.5 11.2 13.5--- 6735.0wxwxwxwxwx3wx--31012.7 992.4 0.1---------
2019-07-15 18:00:00 19.1 11.5 14.4 23.9 14.2- 6135.0wxwxwxwxwx3wx-931012.4 992.2 -0.1- 0.012------
2019-07-15 17:00:00 20.4 12.2 15.3--- 5940.0wxwxwxwxwx3wx--31012.3 992.2 -0.4---------
2019-07-15 16:00:00 20.7 11.1 14.9--- 5440.0wxwxwxwxwx4wx-941012.4 992.3 -0.9---------
2019-07-15 15:00:00 21.9 9.5 14.6--- 4545.0wxwxwxwxwx3wx-931012.3 992.3 -1.3---------
2019-07-15 14:00:00 23.3 6.2 13.9--- 3335.0wxwxwxwx3wx--31012.5 992.6 -1.4---------
2019-07-15 13:00:00 22.3 7.4 13.9--- 3835.0wxwxwxwx3wx--31013.2 993.2 -1.0---------
2019-07-15 12:00:00 21.6 9.2 14.4--- 4535.0wxwxwxwx4wx--41013.6 993.6 -1.0- 0.06------
2019-07-15 11:00:00 20.3 8.7 13.6--- 4730.0wxwxwxwx2wx--21014.1 994.0 -0.7---------
2019-07-15 10:00:00 20.0 8.1 13.2--- 4629.0wxwxwxwx2wx--21014.4 994.2 -0.8---------
2019-07-15 09:00:00 18.4 10.8 13.7--- 6135.0wxwxwxwxwx2wx--21014.9 994.6 -0.2---------
2019-07-15 08:00:00 17.3 13.1 14.5--- 7628.0wxwxwxwx2wx--21015.1 994.7 0.0---------
2019-07-15 07:00:00 14.9 12.9 13.5--- 8819.0wxwxwxwxwx3wx--31015.5 995.0 0.3---------
2019-07-15 06:00:00 14.2 12.5 13.0 19.1 7.9 5 9020.0wxwxwxwx3wx--31015.4 994.8 0.1- 0.012----- 11.1
2019-07-15 05:00:00 13.1 12.1 12.4--- 9425.0wxwxwxwxwx3wx--31015.4 994.7 -0.2---------
2019-07-15 04:00:00 10.9 10.7 10.7--- 9910.0wx-wx1wx--11015.5 994.7 -0.2---------
2019-07-15 03:00:00 8.5 8.2 8.2--- 9810.0wx-wx2wx---1015.7 994.7 -0.4---wx---
2019-07-15 02:00:00 8.5 8.0 8.1--- 9716.0wx-wx2wx--21015.9 994.9 -0.2---------
2019-07-15 01:00:00 8.5 7.4 7.7--- 9321.0wx-2wx--21015.9 994.9 0.0---------
2019-07-15 00:00:00 9.5 8.0 8.5--- 9040.0wx-1wx--11016.0 995.1 0.1- 0.06------
2019-07-14 23:00:00 10.1 8.0 8.7--- 8740.0wx-2wx--21016.0 995.1 0.1---------
2019-07-14 22:00:00 12.6 7.8 9.7--- 7350.0wx-wx2wx--21015.6 994.9 0.2---------
2019-07-14 21:00:00 13.7 7.1 9.8--- 6450.0wx-wx2wx--21015.6 995.0 0.9---------
2019-07-14 20:00:00 15.3 6.4 10.3--- 5550.0wx-2wx--21015.5 995.0 1.3---------
2019-07-14 19:00:00 17.3 6.0 11.1--- 4750.0wx-wx3wx--31015.1 994.7 1.2---------
2019-07-14 18:00:00 19.1 5.6 11.8 21.7 15.2- 4145.0wxwxwxwxwx4wx--41014.3 994.1 0.6- 0.012------
2019-07-14 17:00:00 20.4 5.3 12.2--- 3750.0wxwxwxwx5wx--51013.8 993.7 0.2---------
2019-07-14 16:00:00 21.1 4.7 12.3--- 3430.0wxwxwxwx5wx--51013.6 993.5 -0.4---------
2019-07-14 15:00:00 21.6 5.1 12.7--- 3435.0wxwxwx4wx--41013.5 993.5 -0.5---------
2019-07-14 14:00:00 21.3 5.3 12.6--- 3535.0wxwxwxwx4wx---1013.6 993.5 -0.7---------
2019-07-14 13:00:00 20.5 6.5 12.8--- 4030.0wxwxwxwx4wx--41014.0 993.9 -0.2---------
2019-07-14 12:00:00 20.7 6.7 12.9--- 4030.0wxwxwxwx4wx--41014.1 994.0 -0.1- 0.06------
2019-07-14 11:00:00 20.2 6.2 12.5--- 4025.0wxwxwxwx5wx--51014.4 994.2 0.1---------
2019-07-14 10:00:00 19.5 8.0 12.9--- 4735.0wxwxwxwx4wx--41014.3 994.1 0.2---------
2019-07-14 09:00:00 18.3 9.2 12.9--- 5530.0wxwxwxwx3wx--31014.4 994.1 0.5---------
2019-07-14 08:00:00 16.8 11.6 13.5--- 7130.0wxwxwxwx2wx--21014.5 994.1 0.8---------
2019-07-14 07:00:00 16.3 11.3 13.1--- 7235.0wxwxwx3wx--31014.3 993.9 0.7---------
2019-07-14 06:00:00 15.2 12.2 13.2 16.7 11.4 10 8224.0wxwxwxwx3wx--31014.1 993.6 0.7 0.1-12----- 9.3
2019-07-14 05:00:00 13.4 12.2 12.5--- 9220.0wxwxwx1wx--11013.9 993.3 0.7---------
2019-07-14 04:00:00 12.3 11.8 11.9--- 9710.0wxwxwxwx1wx--11013.9 993.2 0.3---------
2019-07-14 03:00:00 11.5 11.0 11.1--- 9710.0wx-wx1wx--11013.6 992.9 -0.1---------
2019-07-14 02:00:00 11.9 11.1 11.3--- 9510.0wxwxwxwxwx1wx--11013.3 992.6 -0.2---------
2019-07-14 01:00:00 12.9 11.7 12.0--- 9220.0wxwxwx1wx--11013.5 992.9 0.1---------
2019-07-14 00:00:00 12.7 12.0 12.2--- 9610.0wxwxwx1wx--11013.7 993.0 0.4- 0.06------
2.0 ms

 

Print Friendly, PDF & Email